createdAt,value
2018-12-05T00:00:31.181Z,13.00
2018-12-05T00:01:31.175Z,14.00
2018-12-05T00:02:31.176Z,13.50
2018-12-05T00:03:31.171Z,15.50
2018-12-05T00:04:31.186Z,14.60
2018-12-05T00:05:31.150Z,14.50
2018-12-05T00:06:31.380Z,14.60
2018-12-05T00:07:31.359Z,13.90
2018-12-05T00:08:31.139Z,15.30
2018-12-05T00:09:31.350Z,15.20
2018-12-05T00:10:31.155Z,15.70
2018-12-05T00:11:31.324Z,15.40
2018-12-05T00:12:31.129Z,15.40
2018-12-05T00:13:31.332Z,14.60
2018-12-05T00:14:31.313Z,15.20
2018-12-05T00:15:31.102Z,15.00
2018-12-05T00:16:31.124Z,14.80
2018-12-05T00:17:31.095Z,15.80
2018-12-05T00:18:31.094Z,16.30
2018-12-05T00:19:31.094Z,16.10
2018-12-05T00:20:31.297Z,16.10
2018-12-05T00:21:31.098Z,15.70
2018-12-05T00:22:31.089Z,14.30
2018-12-05T00:23:31.064Z,14.40
2018-12-05T00:24:31.074Z,14.60
2018-12-05T00:25:31.063Z,14.70
2018-12-05T00:26:31.048Z,15.00
2018-12-05T00:27:31.056Z,14.50
2018-12-05T00:28:31.042Z,14.90
2018-12-05T00:29:31.237Z,14.80
2018-12-05T00:30:31.045Z,13.00
2018-12-05T00:32:31.017Z,13.50
2018-12-05T00:33:31.217Z,13.90
2018-12-05T00:34:31.210Z,12.60
2018-12-05T00:35:31.015Z,13.50
2018-12-05T00:36:31.214Z,13.60
2018-12-05T00:37:31.006Z,15.70
2018-12-05T00:38:31.005Z,13.70
2018-12-05T00:39:30.984Z,14.50
2018-12-05T00:40:30.997Z,15.60
2018-12-05T00:41:30.974Z,16.40
2018-12-05T00:42:30.971Z,16.80
2018-12-05T00:43:30.975Z,15.80
2018-12-05T00:44:30.959Z,16.60
2018-12-05T00:45:30.976Z,15.00
2018-12-05T00:46:30.963Z,14.40
2018-12-05T00:47:30.971Z,15.10
2018-12-05T00:48:30.940Z,15.30
2018-12-05T00:49:30.938Z,15.70
2018-12-05T00:50:30.933Z,15.20
2018-12-05T00:51:30.936Z,15.00
2018-12-05T00:52:30.931Z,15.20
2018-12-05T00:53:30.928Z,14.50
2018-12-05T00:54:31.113Z,15.70
2018-12-05T00:55:30.905Z,14.40
2018-12-05T00:56:30.902Z,15.60
2018-12-05T00:57:31.099Z,15.30
2018-12-05T00:58:30.890Z,15.50
2018-12-05T00:59:30.889Z,14.50
2018-12-05T01:00:30.888Z,14.10
2018-12-05T01:01:30.894Z,14.20
2018-12-05T01:02:30.873Z,14.00
2018-12-05T01:03:30.866Z,13.20
2018-12-05T01:04:30.865Z,14.10
2018-12-05T01:05:31.063Z,13.50
2018-12-05T01:06:30.853Z,15.90
2018-12-05T01:07:30.860Z,14.60
2018-12-05T01:08:30.842Z,14.70
2018-12-05T01:09:30.844Z,15.60
2018-12-05T01:10:30.852Z,14.90
2018-12-05T01:11:30.831Z,14.60
2018-12-05T01:12:30.824Z,15.70
2018-12-05T01:13:30.828Z,15.20
2018-12-05T01:14:30.829Z,15.20
2018-12-05T01:15:30.812Z,15.00
2018-12-05T01:16:30.808Z,13.80
2018-12-05T01:17:30.807Z,12.70
2018-12-05T01:18:31.024Z,14.20
2018-12-05T01:19:30.799Z,14.70
2018-12-05T01:20:30.796Z,16.40
2018-12-05T01:21:30.983Z,15.90
2018-12-05T01:22:30.790Z,15.10
2018-12-05T01:23:30.785Z,14.80
2018-12-05T01:24:30.767Z,14.80
2018-12-05T01:25:30.761Z,15.80
2018-12-05T01:26:30.770Z,16.20
2018-12-05T01:27:30.761Z,17.50
2018-12-05T01:28:30.768Z,17.20
2018-12-05T01:29:30.757Z,15.50
2018-12-05T01:30:30.735Z,16.40
2018-12-05T01:31:30.747Z,15.80
2018-12-05T01:32:30.740Z,17.70
2018-12-05T01:33:30.722Z,15.60
2018-12-05T01:34:30.738Z,17.10
2018-12-05T01:35:30.714Z,17.60
2018-12-05T01:36:30.911Z,16.50
2018-12-05T01:37:30.907Z,17.20
2018-12-05T01:38:30.712Z,16.60
2018-12-05T01:39:30.708Z,15.40
2018-12-05T01:40:30.891Z,15.70
2018-12-05T01:41:30.907Z,16.10
2018-12-05T01:42:30.680Z,14.50
2018-12-05T01:43:30.678Z,14.70
2018-12-05T01:44:30.895Z,14.60
2018-12-05T01:45:30.663Z,16.20
2018-12-05T01:46:30.662Z,15.40
2018-12-05T01:47:30.655Z,13.70
2018-12-05T01:48:30.663Z,13.40
2018-12-05T01:49:30.656Z,14.10
2018-12-05T01:50:30.641Z,14.30
2018-12-05T01:51:30.637Z,13.60
2018-12-05T01:52:30.631Z,13.00
2018-12-05T01:53:30.637Z,13.10
2018-12-05T01:54:30.638Z,14.00
2018-12-05T01:55:30.621Z,13.50
2018-12-05T01:56:30.830Z,14.30
2018-12-05T01:57:30.618Z,13.70
2018-12-05T01:58:30.809Z,13.40
2018-12-05T01:59:30.603Z,12.50
2018-12-05T02:00:30.796Z,12.10
2018-12-05T02:01:30.605Z,12.60
2018-12-05T02:02:30.792Z,12.60
2018-12-05T02:03:30.595Z,13.30
2018-12-05T02:04:30.778Z,14.80
2018-12-05T02:05:30.772Z,13.40
2018-12-05T02:06:30.783Z,13.00
2018-12-05T02:07:30.575Z,13.00
2018-12-05T02:08:30.554Z,13.90
2018-12-05T02:09:30.561Z,13.30
2018-12-05T02:10:30.543Z,12.30
2018-12-05T02:11:30.550Z,12.40
2018-12-05T02:12:30.533Z,13.30
2018-12-05T02:13:30.542Z,14.00
2018-12-05T02:14:30.538Z,15.20
2018-12-05T02:15:30.718Z,14.60
2018-12-05T02:16:30.526Z,15.10
2018-12-05T02:17:30.510Z,15.80
2018-12-05T02:18:30.518Z,15.80
2018-12-05T02:19:30.507Z,15.50
2018-12-05T02:20:30.497Z,15.40
2018-12-05T02:21:30.711Z,15.00
2018-12-05T02:22:30.495Z,15.60
2018-12-05T02:23:30.479Z,15.40
2018-12-05T02:24:30.483Z,16.10
2018-12-05T02:25:30.668Z,15.40
2018-12-05T02:26:30.541Z,14.70
2018-12-05T02:27:30.457Z,15.70
2018-12-05T02:28:30.665Z,15.70
2018-12-05T02:29:30.440Z,15.90
2018-12-05T02:30:30.439Z,15.60
2018-12-05T02:31:30.641Z,15.40
2018-12-05T02:32:30.429Z,15.50
2018-12-05T02:33:30.425Z,14.40
2018-12-05T02:34:30.428Z,13.90
2018-12-05T02:35:30.433Z,13.20
2018-12-05T02:36:30.412Z,13.80
2018-12-05T02:37:30.399Z,12.80
2018-12-05T02:38:30.604Z,14.10
2018-12-05T02:39:30.405Z,13.80
2018-12-05T02:40:30.398Z,13.50
2018-12-05T02:41:30.384Z,12.90
2018-12-05T02:42:30.376Z,13.30
2018-12-05T02:43:30.575Z,12.20
2018-12-05T02:44:30.372Z,13.00
2018-12-05T02:45:30.368Z,11.90
2018-12-05T02:46:30.365Z,12.70
2018-12-05T02:47:30.353Z,11.80
2018-12-05T02:48:30.351Z,12.10
2018-12-05T02:49:30.556Z,11.50
2018-12-05T02:50:30.340Z,11.90
2018-12-05T02:51:30.560Z,12.30
2018-12-05T02:52:30.326Z,11.90
2018-12-05T02:53:30.328Z,12.50
2018-12-05T02:54:30.536Z,11.40
2018-12-05T02:55:30.313Z,12.70
2018-12-05T02:56:30.313Z,12.20
2018-12-05T02:57:30.511Z,13.30
2018-12-05T02:58:30.299Z,13.10
2018-12-05T02:59:30.294Z,12.90
2018-12-05T03:00:30.286Z,13.00
2018-12-05T03:01:30.485Z,12.80
2018-12-05T03:02:30.491Z,12.60
2018-12-05T03:03:30.286Z,13.20
2018-12-05T03:04:30.277Z,14.00
2018-12-05T03:05:30.263Z,13.30
2018-12-05T03:06:30.263Z,13.30
2018-12-05T03:07:30.257Z,13.40
2018-12-05T03:08:30.246Z,13.00
2018-12-05T03:09:30.237Z,13.00
2018-12-05T03:10:30.237Z,13.30
2018-12-05T03:11:30.263Z,13.70
2018-12-05T03:12:30.235Z,13.00
2018-12-05T03:13:30.271Z,13.20
2018-12-05T03:14:30.216Z,13.10
2018-12-05T03:15:30.201Z,12.60
2018-12-05T03:16:30.201Z,10.90
2018-12-05T03:17:30.212Z,12.30
2018-12-05T03:18:30.206Z,12.30
2018-12-05T03:19:30.207Z,12.10
2018-12-05T03:20:30.179Z,12.70
2018-12-05T03:21:30.182Z,15.40
2018-12-05T03:22:30.367Z,15.70
2018-12-05T03:23:30.157Z,15.30
2018-12-05T03:24:30.159Z,15.80
2018-12-05T03:25:30.150Z,15.20
2018-12-05T03:26:30.345Z,13.90
2018-12-05T03:27:30.143Z,14.60
2018-12-05T03:28:30.134Z,13.70
2018-12-05T03:29:30.144Z,13.20
2018-12-05T03:30:30.333Z,14.10
2018-12-05T03:31:30.126Z,13.30
2018-12-05T03:32:30.130Z,13.30
2018-12-05T03:33:30.318Z,12.40
2018-12-05T03:34:30.102Z,12.10
2018-12-05T03:35:30.300Z,12.80
2018-12-05T03:36:30.096Z,12.90
2018-12-05T03:37:30.099Z,13.70
2018-12-05T03:38:30.100Z,13.30
2018-12-05T03:39:30.090Z,13.20
2018-12-05T03:40:30.068Z,13.50
2018-12-05T03:41:30.060Z,12.50
2018-12-05T03:42:30.072Z,11.40
2018-12-05T03:43:30.049Z,11.60
2018-12-05T03:44:30.053Z,11.70
2018-12-05T03:45:31.597Z,11.50
2018-12-05T03:46:30.235Z,10.80
2018-12-05T03:47:30.032Z,11.30
2018-12-05T03:48:30.023Z,9.70
2018-12-05T03:49:30.016Z,10.30
2018-12-05T03:50:30.020Z,10.60
2018-12-05T03:51:30.003Z,9.60
2018-12-05T03:52:30.205Z,9.50
2018-12-05T03:53:30.295Z,10.80
2018-12-05T03:54:29.998Z,11.40
2018-12-05T03:55:29.992Z,11.60
2018-12-05T03:56:29.990Z,12.10
2018-12-05T03:57:29.971Z,12.70
2018-12-05T03:58:29.974Z,11.50
2018-12-05T03:59:29.966Z,11.40
2018-12-05T04:00:30.159Z,11.60
2018-12-05T04:01:29.954Z,11.50
2018-12-05T04:02:29.940Z,12.00
2018-12-05T04:03:30.146Z,12.10
2018-12-05T04:04:29.953Z,10.70
2018-12-05T04:05:29.924Z,11.20
2018-12-05T04:06:30.124Z,10.70
2018-12-05T04:07:29.924Z,11.20
2018-12-05T04:08:29.915Z,10.90
2018-12-05T04:09:30.107Z,11.20
2018-12-05T04:10:29.902Z,10.30
2018-12-05T04:11:30.108Z,10.90
2018-12-05T04:12:29.912Z,11.80
2018-12-05T04:13:29.895Z,11.70
2018-12-05T04:14:29.880Z,12.00
2018-12-05T04:15:29.890Z,12.20
2018-12-05T04:16:29.874Z,12.60
2018-12-05T04:17:30.064Z,13.50
2018-12-05T04:18:29.860Z,12.30
2018-12-05T04:19:29.847Z,13.40
2018-12-05T04:20:29.850Z,13.20
2018-12-05T04:21:29.845Z,15.90
2018-12-05T04:22:30.033Z,15.60
2018-12-05T04:23:30.048Z,17.20
2018-12-05T04:24:29.832Z,16.20
2018-12-05T04:25:29.826Z,17.20
2018-12-05T04:26:29.803Z,16.50
2018-12-05T04:27:29.807Z,18.60
2018-12-05T04:28:29.998Z,21.20
2018-12-05T04:29:29.997Z,20.90
2018-12-05T04:30:29.804Z,20.30
2018-12-05T04:31:29.780Z,21.40
2018-12-05T04:32:29.781Z,20.00
2018-12-05T04:33:29.778Z,18.70
2018-12-05T04:34:29.779Z,20.60
2018-12-05T04:35:29.975Z,22.50
2018-12-05T04:36:29.755Z,22.80
2018-12-05T04:37:29.771Z,26.80
2018-12-05T04:38:29.750Z,24.70
2018-12-05T04:39:29.744Z,24.90
2018-12-05T04:40:29.724Z,23.50
2018-12-05T04:41:29.753Z,25.40
2018-12-05T04:42:29.714Z,25.80
2018-12-05T04:43:29.710Z,26.80
2018-12-05T04:44:29.720Z,25.00
2018-12-05T04:45:29.901Z,25.10
2018-12-05T04:46:29.694Z,24.20
2018-12-05T04:47:29.886Z,24.70
2018-12-05T04:48:29.693Z,26.30
2018-12-05T04:49:29.881Z,25.80
2018-12-05T04:50:29.872Z,28.00
2018-12-05T04:51:29.665Z,23.50
2018-12-05T04:52:29.859Z,22.50
2018-12-05T04:53:29.649Z,22.20
2018-12-05T04:54:29.659Z,19.80
2018-12-05T04:55:29.643Z,19.00
2018-12-05T04:56:29.633Z,17.90
2018-12-05T04:57:29.829Z,14.50
2018-12-05T04:58:29.629Z,12.00
2018-12-05T04:59:29.624Z,15.20
2018-12-05T05:00:29.607Z,18.30
2018-12-05T05:01:29.619Z,19.90
2018-12-05T05:02:29.606Z,18.40
2018-12-05T05:03:29.594Z,16.60
2018-12-05T05:04:29.587Z,15.00
2018-12-05T05:05:29.592Z,15.30
2018-12-05T05:06:29.574Z,14.30
2018-12-05T05:07:29.568Z,14.30
2018-12-05T05:08:29.561Z,13.00
2018-12-05T05:09:29.572Z,12.50
2018-12-05T05:10:29.561Z,13.70
2018-12-05T05:11:29.560Z,12.90
2018-12-05T05:12:29.539Z,12.30
2018-12-05T05:13:29.532Z,13.00
2018-12-05T05:14:29.540Z,12.20
2018-12-05T05:15:29.522Z,12.00
2018-12-05T05:16:29.518Z,11.60
2018-12-05T05:17:29.503Z,11.80
2018-12-05T05:18:29.559Z,12.10
2018-12-05T05:19:29.509Z,12.20
2018-12-05T05:20:29.496Z,11.30
2018-12-05T05:21:29.487Z,11.30
2018-12-05T05:22:29.481Z,11.80
2018-12-05T05:23:29.470Z,11.10
2018-12-05T05:24:29.468Z,10.90
2018-12-05T05:25:29.469Z,10.70
2018-12-05T05:26:29.472Z,11.10
2018-12-05T05:27:29.469Z,11.70
2018-12-05T05:28:29.449Z,12.00
2018-12-05T05:29:29.454Z,11.00
2018-12-05T05:30:29.438Z,11.10
2018-12-05T05:31:29.428Z,11.90
2018-12-05T05:32:29.420Z,12.30
2018-12-05T05:33:29.416Z,12.10
2018-12-05T05:34:29.410Z,12.90
2018-12-05T05:35:29.405Z,13.00
2018-12-05T05:36:29.453Z,14.20
2018-12-05T05:37:29.401Z,14.50
2018-12-05T05:38:29.388Z,14.80
2018-12-05T05:39:29.451Z,15.10
2018-12-05T05:40:29.443Z,17.10
2018-12-05T05:41:29.387Z,15.90
2018-12-05T05:42:29.365Z,15.20
2018-12-05T05:43:29.355Z,13.90
2018-12-05T05:44:29.351Z,12.50
2018-12-05T05:45:29.343Z,13.10
2018-12-05T05:46:29.442Z,12.50
2018-12-05T05:47:29.345Z,12.30
2018-12-05T05:48:29.348Z,12.40
2018-12-05T05:49:29.328Z,12.60
2018-12-05T05:50:29.323Z,12.50
2018-12-05T05:51:29.316Z,12.50
2018-12-05T05:52:29.332Z,13.00
2018-12-05T05:53:29.305Z,13.60
2018-12-05T05:54:29.292Z,13.20
2018-12-05T05:55:29.288Z,13.30
2018-12-05T05:56:29.283Z,14.40
2018-12-05T05:57:29.275Z,14.50
2018-12-05T05:58:29.276Z,15.10
2018-12-05T05:59:29.263Z,14.40
2018-12-05T06:00:29.261Z,15.50
2018-12-05T06:01:29.256Z,15.60
2018-12-05T06:02:29.300Z,15.60
2018-12-05T06:03:29.243Z,14.60
2018-12-05T06:04:29.251Z,16.20
2018-12-05T06:05:29.233Z,16.20
2018-12-05T06:06:29.221Z,16.10
2018-12-05T06:07:29.231Z,15.10
2018-12-05T06:08:29.219Z,15.90
2018-12-05T06:09:29.205Z,15.80
2018-12-05T06:10:29.200Z,16.10
2018-12-05T06:11:29.198Z,17.20
2018-12-05T06:12:29.195Z,16.70
2018-12-05T06:13:29.182Z,17.00
2018-12-05T06:14:29.179Z,16.60
2018-12-05T06:15:29.174Z,16.40
2018-12-05T06:16:29.203Z,18.50
2018-12-05T06:17:29.186Z,17.40
2018-12-05T06:18:29.163Z,18.30
2018-12-05T06:19:29.152Z,18.00
2018-12-05T06:20:29.163Z,18.60
2018-12-05T06:21:29.138Z,17.90
2018-12-05T06:22:29.136Z,17.40
2018-12-05T06:23:29.338Z,17.00
2018-12-05T06:24:30.843Z,18.20
2018-12-05T06:25:29.132Z,16.50
2018-12-05T06:26:29.112Z,17.10
2018-12-05T06:27:29.320Z,16.40
2018-12-05T06:28:29.101Z,16.60
2018-12-05T06:29:29.109Z,16.00
2018-12-05T06:30:29.104Z,16.80
2018-12-05T06:31:29.075Z,16.30
2018-12-05T06:32:29.075Z,17.10
2018-12-05T06:33:30.814Z,16.60
2018-12-05T06:34:29.081Z,17.50
2018-12-05T06:35:29.084Z,18.30
2018-12-05T06:36:29.083Z,18.70
2018-12-05T06:37:29.085Z,20.20
2018-12-05T06:38:29.068Z,19.70
2018-12-05T06:39:29.108Z,18.90
2018-12-05T06:40:29.032Z,19.60
2018-12-05T06:41:29.046Z,19.30
2018-12-05T06:42:29.235Z,19.10
2018-12-05T06:43:29.020Z,19.40
2018-12-05T06:44:29.218Z,18.90
2018-12-05T06:45:29.011Z,18.90
2018-12-05T06:46:28.991Z,18.80
2018-12-05T06:47:28.992Z,18.50
2018-12-05T06:48:28.993Z,19.00
2018-12-05T06:49:28.976Z,18.90
2018-12-05T06:50:28.969Z,17.80
2018-12-05T06:51:29.172Z,17.90
2018-12-05T06:52:29.165Z,18.90
2018-12-05T06:53:28.958Z,17.80
2018-12-05T06:54:28.945Z,16.70
2018-12-05T06:55:29.153Z,16.30
2018-12-05T06:56:28.933Z,16.40
2018-12-05T06:57:28.933Z,16.40
2018-12-05T06:58:29.141Z,17.50
2018-12-05T06:59:28.921Z,16.30
2018-12-05T07:00:28.910Z,16.60
2018-12-05T07:01:28.907Z,18.00
2018-12-05T07:02:28.919Z,17.60
2018-12-05T07:03:28.901Z,17.10
2018-12-05T07:04:28.891Z,17.50
2018-12-05T07:05:28.900Z,16.50
2018-12-05T07:06:28.875Z,16.80
2018-12-05T07:07:28.886Z,17.40
2018-12-05T07:08:29.077Z,17.10
2018-12-05T07:09:29.091Z,16.80
2018-12-05T07:10:29.066Z,14.70
2018-12-05T07:11:28.856Z,16.40
2018-12-05T07:12:29.088Z,16.30
2018-12-05T07:13:28.838Z,15.80
2018-12-05T07:14:29.068Z,15.10
2018-12-05T07:15:28.838Z,16.40
2018-12-05T07:16:28.825Z,15.80
2018-12-05T07:17:29.026Z,15.80
2018-12-05T07:18:28.811Z,15.00
2018-12-05T07:19:28.817Z,14.80
2018-12-05T07:20:29.014Z,16.20
2018-12-05T07:21:29.000Z,15.50
2018-12-05T07:22:28.993Z,15.10
2018-12-05T07:23:28.792Z,15.90
2018-12-05T07:24:29.000Z,14.60
2018-12-05T07:25:28.789Z,16.20
2018-12-05T07:26:28.778Z,15.50
2018-12-05T07:27:28.762Z,15.20
2018-12-05T07:28:28.963Z,15.10
2018-12-05T07:29:28.781Z,15.30
2018-12-05T07:30:29.578Z,14.20
2018-12-05T07:31:28.742Z,15.00
2018-12-05T07:32:28.750Z,14.80
2018-12-05T07:33:28.745Z,14.40
2018-12-05T07:34:28.730Z,14.60
2018-12-05T07:35:28.720Z,14.80
2018-12-05T07:36:28.734Z,14.80
2018-12-05T07:37:28.733Z,14.80
2018-12-05T07:38:28.723Z,14.60
2018-12-05T07:39:28.726Z,13.70
2018-12-05T07:40:28.699Z,14.20
2018-12-05T07:41:28.708Z,13.50
2018-12-05T07:42:28.694Z,14.10
2018-12-05T07:43:28.683Z,14.60
2018-12-05T07:44:28.680Z,13.20
2018-12-05T07:45:28.669Z,14.20
2018-12-05T07:46:28.667Z,13.70
2018-12-05T07:47:28.661Z,16.40
2018-12-05T07:48:28.656Z,13.80
2018-12-05T07:49:28.852Z,15.80
2018-12-05T07:50:28.648Z,15.60
2018-12-05T07:51:28.641Z,12.50
2018-12-05T07:52:28.642Z,14.30
2018-12-05T07:53:28.635Z,15.10
2018-12-05T07:54:28.626Z,13.50
2018-12-05T07:55:28.617Z,12.70
2018-12-05T07:56:28.618Z,13.60
2018-12-05T07:57:28.810Z,12.90
2018-12-05T07:58:28.605Z,12.50
2018-12-05T07:59:28.607Z,11.00
2018-12-05T08:00:28.594Z,11.40
2018-12-05T08:01:28.612Z,10.50
2018-12-05T08:02:28.588Z,11.10
2018-12-05T08:03:28.578Z,10.40
2018-12-05T08:04:28.574Z,10.80
2018-12-05T08:05:28.564Z,10.40
2018-12-05T08:06:28.567Z,10.00
2018-12-05T08:07:28.763Z,9.90
2018-12-05T08:08:28.561Z,10.70
2018-12-05T08:09:28.555Z,10.10
2018-12-05T08:10:28.558Z,10.00
2018-12-05T08:11:28.740Z,9.60
2018-12-05T08:12:28.547Z,9.30
2018-12-05T08:13:28.526Z,8.90
2018-12-05T08:14:28.531Z,8.60
2018-12-05T08:15:28.517Z,8.90
2018-12-05T08:16:28.512Z,8.70
2018-12-05T08:17:28.509Z,8.90
2018-12-05T08:18:28.506Z,9.40
2018-12-05T08:19:28.703Z,9.20
2018-12-05T08:20:28.500Z,8.40
2018-12-05T08:21:28.492Z,7.60
2018-12-05T08:22:28.481Z,8.00
2018-12-05T08:23:28.498Z,8.10
2018-12-05T08:24:28.498Z,7.40
2018-12-05T08:25:28.471Z,8.00
2018-12-05T08:26:28.482Z,7.60
2018-12-05T08:27:28.467Z,7.50
2018-12-05T08:28:28.662Z,7.40
2018-12-05T08:29:28.656Z,7.40
2018-12-05T08:30:28.445Z,6.80
2018-12-05T08:31:28.449Z,7.10
2018-12-05T08:32:28.637Z,7.70
2018-12-05T08:33:28.446Z,7.20
2018-12-05T08:34:28.423Z,7.80
2018-12-05T08:35:28.420Z,7.20
2018-12-05T08:36:28.417Z,6.70
2018-12-05T08:37:28.413Z,7.70
2018-12-05T08:38:28.406Z,7.20
2018-12-05T08:39:28.399Z,6.80
2018-12-05T08:40:28.409Z,7.30
2018-12-05T08:41:28.394Z,7.50
2018-12-05T08:42:28.592Z,7.20
2018-12-05T08:43:28.392Z,6.80
2018-12-05T08:44:28.585Z,7.50
2018-12-05T08:45:28.373Z,7.10
2018-12-05T08:46:28.370Z,7.50
2018-12-05T08:47:33.656Z,7.20
2018-12-05T08:48:28.375Z,6.70
2018-12-05T08:49:28.363Z,8.10
2018-12-05T08:50:28.367Z,8.10
2018-12-05T08:51:28.348Z,7.00
2018-12-05T08:52:28.338Z,7.50
2018-12-05T08:53:28.332Z,7.90
2018-12-05T08:54:28.337Z,7.70
2018-12-05T08:55:28.334Z,7.40
2018-12-05T08:56:28.324Z,7.70
2018-12-05T08:57:28.321Z,8.10
2018-12-05T08:58:28.329Z,7.30
2018-12-05T08:59:28.316Z,8.00
2018-12-05T09:00:28.315Z,8.10
2018-12-05T09:01:28.513Z,7.50
2018-12-05T09:02:28.303Z,8.00
2018-12-05T09:03:28.310Z,7.50
2018-12-05T09:04:28.292Z,8.20
2018-12-05T09:05:28.292Z,7.50
2018-12-05T09:06:28.284Z,8.20
2018-12-05T09:07:28.270Z,7.70
2018-12-05T09:08:28.281Z,30.20
2018-12-05T09:09:28.265Z,23.30
2018-12-05T09:10:28.260Z,7.50
2018-12-05T09:11:28.257Z,7.80
2018-12-05T09:12:28.262Z,35.20
2018-12-05T09:13:28.250Z,7.40
2018-12-05T09:14:28.915Z,12.30
2018-12-05T09:15:28.257Z,7.20
2018-12-05T09:16:28.237Z,7.40
2018-12-05T09:17:28.255Z,7.50
2018-12-05T09:18:28.231Z,7.90
2018-12-05T09:19:28.232Z,7.70
2018-12-05T09:20:28.415Z,7.90
2018-12-05T09:21:28.221Z,8.10
2018-12-05T09:22:28.215Z,6.90
2018-12-05T09:23:28.202Z,8.40
2018-12-05T09:24:28.210Z,8.10
2018-12-05T09:25:28.397Z,7.80
2018-12-05T09:26:28.392Z,7.90
2018-12-05T09:27:28.197Z,8.00
2018-12-05T09:28:28.404Z,8.30
2018-12-05T09:29:28.178Z,8.10
2018-12-05T09:30:28.192Z,8.60
2018-12-05T09:31:28.180Z,8.70
2018-12-05T09:32:28.173Z,8.30
2018-12-05T09:33:28.367Z,8.40
2018-12-05T09:34:28.157Z,8.40
2018-12-05T09:35:28.364Z,8.90
2018-12-05T09:36:28.147Z,8.70
2018-12-05T09:37:28.138Z,8.60
2018-12-05T09:38:28.358Z,8.00
2018-12-05T09:39:28.131Z,8.60
2018-12-05T09:40:28.131Z,8.80
2018-12-05T09:41:28.115Z,8.70
2018-12-05T09:42:28.143Z,9.10
2018-12-05T09:43:28.122Z,9.40
2018-12-05T09:44:28.099Z,9.20
2018-12-05T09:45:28.111Z,8.80
2018-12-05T09:46:28.308Z,9.60
2018-12-05T09:47:28.087Z,9.20
2018-12-05T09:48:28.090Z,9.30
2018-12-05T09:49:28.089Z,9.10
2018-12-05T09:50:28.090Z,9.30
2018-12-05T09:51:28.074Z,9.70
2018-12-05T09:52:28.118Z,9.80
2018-12-05T09:53:28.062Z,9.70
2018-12-05T09:54:28.059Z,9.40
2018-12-05T09:55:28.112Z,9.80
2018-12-05T09:56:28.063Z,10.20
2018-12-05T09:57:28.054Z,10.50
2018-12-05T09:58:28.091Z,10.30
2018-12-05T09:59:28.037Z,9.90
2018-12-05T10:00:28.041Z,10.40
2018-12-05T10:01:28.035Z,9.90
2018-12-05T10:02:28.021Z,10.00
2018-12-05T10:03:28.020Z,10.00
2018-12-05T10:04:28.014Z,10.10
2018-12-05T10:05:28.226Z,10.30
2018-12-05T10:06:28.014Z,10.80
2018-12-05T10:07:28.008Z,10.00
2018-12-05T10:08:28.001Z,10.30
2018-12-05T10:09:28.011Z,9.90
2018-12-05T10:10:28.192Z,10.30
2018-12-05T10:11:27.991Z,10.30
2018-12-05T10:12:27.981Z,10.50
2018-12-05T10:13:27.973Z,10.60
2018-12-05T10:14:27.980Z,10.00
2018-12-05T10:15:27.981Z,10.60
2018-12-05T10:16:27.961Z,10.70
2018-12-05T10:17:28.164Z,10.50
2018-12-05T10:18:28.156Z,10.80
2018-12-05T10:19:27.963Z,11.00
2018-12-05T10:20:27.962Z,10.60
2018-12-05T10:21:27.951Z,12.00
2018-12-05T10:22:27.930Z,11.90
2018-12-05T10:23:27.936Z,12.50
2018-12-05T10:24:28.150Z,11.60
2018-12-05T10:25:27.916Z,11.60
2018-12-05T10:26:27.929Z,11.20
2018-12-05T10:27:27.931Z,11.60
2018-12-05T10:28:27.982Z,11.40
2018-12-05T10:29:27.921Z,11.80
2018-12-05T10:30:27.894Z,11.70
2018-12-05T10:31:28.097Z,11.00
2018-12-05T10:32:28.092Z,11.90
2018-12-05T10:33:28.118Z,12.10
2018-12-05T10:34:27.884Z,12.40
2018-12-05T10:35:28.077Z,11.90
2018-12-05T10:36:27.876Z,11.90
2018-12-05T10:37:27.880Z,12.40
2018-12-05T10:38:27.863Z,12.40
2018-12-05T10:39:27.859Z,12.40
2018-12-05T10:40:28.071Z,11.60
2018-12-05T10:41:27.849Z,12.50
2018-12-05T10:42:27.858Z,12.00
2018-12-05T10:43:27.863Z,12.80
2018-12-05T10:44:27.857Z,12.40
2018-12-05T10:45:28.053Z,12.70
2018-12-05T10:46:27.825Z,12.80
2018-12-05T10:47:27.847Z,12.50
2018-12-05T10:48:28.024Z,13.40
2018-12-05T10:49:28.054Z,12.80
2018-12-05T10:50:27.824Z,13.50
2018-12-05T10:51:27.806Z,12.90
2018-12-05T10:52:27.814Z,12.50
2018-12-05T10:53:28.007Z,12.90
2018-12-05T10:54:27.804Z,12.80
2018-12-05T10:55:27.799Z,12.20
2018-12-05T10:56:28.004Z,13.30
2018-12-05T10:57:27.786Z,13.20
2018-12-05T10:58:27.990Z,13.20
2018-12-05T10:59:27.800Z,12.60
2018-12-05T11:00:27.789Z,13.20
2018-12-05T11:01:27.775Z,12.30
2018-12-05T11:02:27.780Z,12.30
2018-12-05T11:03:27.770Z,12.40
2018-12-05T11:04:27.765Z,12.10
2018-12-05T11:05:27.780Z,12.70
2018-12-05T11:06:27.965Z,13.20
2018-12-05T11:07:27.743Z,13.10
2018-12-05T11:08:27.734Z,13.20
2018-12-05T11:09:27.726Z,11.60
2018-12-05T11:10:27.729Z,12.90
2018-12-05T11:11:27.731Z,12.40
2018-12-05T11:12:27.717Z,13.00
2018-12-05T11:13:27.710Z,12.40
2018-12-05T11:14:27.711Z,12.00
2018-12-05T11:15:27.705Z,12.50
2018-12-05T11:16:27.917Z,13.40
2018-12-05T11:17:27.703Z,13.40
2018-12-05T11:18:27.689Z,12.50
2018-12-05T11:19:27.914Z,13.10
2018-12-05T11:20:27.698Z,12.50
2018-12-05T11:21:27.690Z,13.10
2018-12-05T11:22:27.681Z,12.10
2018-12-05T11:23:27.677Z,12.70
2018-12-05T11:24:27.664Z,13.30
2018-12-05T11:25:27.669Z,12.20
2018-12-05T11:26:27.676Z,12.50
2018-12-05T11:27:27.861Z,12.00
2018-12-05T11:28:27.657Z,12.10
2018-12-05T11:29:27.658Z,13.00
2018-12-05T11:30:27.649Z,11.80
2018-12-05T11:31:27.841Z,12.00
2018-12-05T11:32:27.638Z,13.20
2018-12-05T11:33:27.656Z,12.60
2018-12-05T11:34:27.632Z,11.80
2018-12-05T11:35:27.639Z,11.80
2018-12-05T11:36:27.633Z,12.40
2018-12-05T11:37:27.612Z,11.80
2018-12-05T11:38:27.610Z,12.10
2018-12-05T11:39:27.640Z,12.40
2018-12-05T11:40:27.807Z,12.60
2018-12-05T11:41:27.606Z,12.60
2018-12-05T11:42:27.814Z,12.50
2018-12-05T11:43:27.601Z,12.20
2018-12-05T11:44:27.602Z,11.90
2018-12-05T11:45:27.578Z,12.10
2018-12-05T11:46:27.597Z,11.50
2018-12-05T11:47:27.600Z,12.10
2018-12-05T11:48:27.572Z,12.50
2018-12-05T11:49:27.567Z,12.10
2018-12-05T11:50:27.781Z,12.40
2018-12-05T11:51:27.554Z,12.40
2018-12-05T11:52:27.551Z,12.60
2018-12-05T11:53:27.550Z,12.00
2018-12-05T11:54:27.562Z,12.10
2018-12-05T11:55:27.541Z,11.80
2018-12-05T11:56:27.750Z,11.40
2018-12-05T11:57:27.753Z,11.70
2018-12-05T11:58:27.541Z,11.80
2018-12-05T11:59:27.520Z,11.90
2018-12-05T12:00:27.531Z,12.10
2018-12-05T12:01:27.727Z,12.50
2018-12-05T12:02:27.718Z,11.90
2018-12-05T12:03:27.504Z,12.00
2018-12-05T12:04:27.519Z,11.70
2018-12-05T12:05:27.510Z,11.80
2018-12-05T12:06:27.508Z,11.90
2018-12-05T12:07:27.505Z,11.60
2018-12-05T12:08:27.514Z,11.60
2018-12-05T12:09:27.486Z,12.20
2018-12-05T12:10:27.681Z,12.10
2018-12-05T12:11:27.484Z,11.50
2018-12-05T12:12:27.477Z,12.10
2018-12-05T12:13:27.481Z,12.00
2018-12-05T12:14:27.669Z,12.60
2018-12-05T12:15:27.462Z,12.10
2018-12-05T12:16:27.456Z,12.20
2018-12-05T12:17:27.453Z,11.60
2018-12-05T12:18:27.442Z,11.70
2018-12-05T12:19:27.452Z,12.00
2018-12-05T12:20:27.456Z,11.80
2018-12-05T12:21:27.651Z,12.50
2018-12-05T12:22:27.430Z,11.90
2018-12-05T12:23:27.422Z,11.80
2018-12-05T12:24:34.715Z,11.30
2018-12-05T12:25:27.430Z,11.70
2018-12-05T12:26:33.188Z,11.80
2018-12-05T12:27:27.433Z,12.00
2018-12-05T12:28:27.412Z,11.20
2018-12-05T12:29:27.404Z,12.70
2018-12-05T12:30:27.413Z,11.80
2018-12-05T12:31:27.413Z,11.20
2018-12-05T12:32:27.405Z,11.50
2018-12-05T12:33:27.394Z,11.60
2018-12-05T12:34:27.397Z,11.90
2018-12-05T12:35:27.398Z,12.50
2018-12-05T12:36:27.383Z,11.80
2018-12-05T12:37:27.379Z,11.90
2018-12-05T12:38:27.369Z,12.00
2018-12-05T12:39:27.371Z,11.70
2018-12-05T12:40:27.374Z,12.10
2018-12-05T12:41:27.382Z,11.70
2018-12-05T12:42:27.369Z,12.10
2018-12-05T12:43:27.576Z,12.40
2018-12-05T12:44:27.351Z,12.60
2018-12-05T12:45:27.348Z,12.20
2018-12-05T12:46:27.547Z,11.70
2018-12-05T12:47:27.355Z,11.90
2018-12-05T12:48:27.326Z,11.80
2018-12-05T12:49:27.415Z,12.20
2018-12-05T12:50:27.336Z,12.00
2018-12-05T12:51:27.330Z,11.90
2018-12-05T12:52:27.334Z,11.60
2018-12-05T12:53:27.311Z,12.10
2018-12-05T12:54:27.297Z,12.20
2018-12-05T12:55:27.313Z,11.30
2018-12-05T12:56:27.516Z,11.50
2018-12-05T12:57:27.493Z,11.80